createdAt,value
2022-11-03T00:01:01.786Z,99935.34
2022-11-03T00:03:29.338Z,99936.03
2022-11-03T00:06:06.320Z,99930.69
2022-11-03T00:08:33.970Z,99922.56
2022-11-03T00:11:01.938Z,99923.44
2022-11-03T00:13:29.535Z,99906.56
2022-11-03T00:15:57.082Z,99907.41
2022-11-03T00:18:24.639Z,99906.56
2022-11-03T00:20:52.208Z,99914.44
2022-11-03T00:23:20.226Z,99913.56
2022-11-03T00:25:47.785Z,99912.88
2022-11-03T00:28:15.662Z,99914.56
2022-11-03T00:30:43.276Z,99908.38
2022-11-03T00:33:10.839Z,99918.22
2022-11-03T00:35:38.813Z,99918.09
2022-11-03T00:38:06.387Z,99911.19
2022-11-03T00:40:33.900Z,99914.69
2022-11-03T00:43:01.530Z,99911.03
2022-11-03T00:45:29.118Z,99918.22
2022-11-03T00:48:10.847Z,99895.88
2022-11-03T00:50:38.375Z,99899.41
2022-11-03T00:53:06.069Z,99899.41
2022-11-03T00:55:33.903Z,99904.75
2022-11-03T00:58:01.415Z,99899.53
2022-11-03T01:00:29.281Z,99902.19
2022-11-03T01:02:56.880Z,99900.50
2022-11-03T01:05:41.717Z,99900.63
2022-11-03T01:08:09.786Z,99898.81
2022-11-03T01:10:37.752Z,99897.97
2022-11-03T01:13:05.523Z,99899.66
2022-11-03T01:15:33.311Z,99895.88
2022-11-03T01:18:00.839Z,99893.31
2022-11-03T01:20:28.835Z,99895.88
2022-11-03T01:22:56.765Z,99888.72
2022-11-03T01:25:25.563Z,99887.75
2022-11-03T01:27:53.125Z,99888.44
2022-11-03T01:30:21.022Z,99886.47
2022-11-03T01:32:50.397Z,99878.22
2022-11-03T01:35:18.320Z,99874.56
2022-11-03T01:37:45.881Z,99878.94
2022-11-03T01:40:13.406Z,99880.63
2022-11-03T01:42:40.947Z,99874.56
2022-11-03T01:45:09.537Z,99882.31
2022-11-03T01:47:37.483Z,99875.97
2022-11-03T01:50:05.015Z,99863.50
2022-11-03T01:52:34.161Z,99871.38
2022-11-03T01:55:01.683Z,99854.38
2022-11-03T01:57:29.388Z,99854.22
2022-11-03T01:59:58.381Z,99855.94
2022-11-03T02:02:26.038Z,99854.09
2022-11-03T02:04:53.598Z,99853.09
2022-11-03T02:07:21.162Z,99845.25
2022-11-03T02:09:49.514Z,99842.41
2022-11-03T02:12:17.426Z,99848.47
2022-11-03T02:14:45.293Z,99844.84
2022-11-03T02:17:12.836Z,99839.50
2022-11-03T02:19:40.361Z,99834.28
2022-11-03T02:22:08.008Z,99830.06
2022-11-03T02:24:35.979Z,99817.09
2022-11-03T02:27:03.475Z,99818.22
2022-11-03T02:29:31.056Z,99805.84
2022-11-03T02:31:58.593Z,99800.50
2022-11-03T02:34:26.880Z,99803.06
2022-11-03T02:36:55.061Z,99797.56
2022-11-03T02:39:22.609Z,99796.59
2022-11-03T02:41:50.123Z,99786.88
2022-11-03T02:44:17.694Z,99792.22
2022-11-03T02:46:45.283Z,99785.19
2022-11-03T02:49:13.269Z,99788.03
2022-11-03T02:51:40.846Z,99772.97
2022-11-03T02:54:08.392Z,99779.16
2022-11-03T02:56:35.916Z,99775.63
2022-11-03T02:59:06.498Z,99764.13
2022-11-03T03:01:35.252Z,99756.13
2022-11-03T03:04:02.929Z,99755.25
2022-11-03T03:06:30.615Z,99759.03
2022-11-03T03:08:58.421Z,99750.19
2022-11-03T03:11:39.016Z,99747.66
2022-11-03T03:14:07.228Z,99749.34
2022-11-03T03:16:34.808Z,99744.00
2022-11-03T03:19:02.366Z,99744.75
2022-11-03T03:21:29.892Z,99749.34
2022-11-03T03:23:57.431Z,99738.66
2022-11-03T03:26:25.009Z,99732.63
2022-11-03T03:28:52.561Z,99729.13
2022-11-03T03:31:20.120Z,99729.25
2022-11-03T03:33:48.084Z,99721.38
2022-11-03T03:36:16.150Z,99721.25
2022-11-03T03:38:43.709Z,99728.56
2022-11-03T03:41:11.281Z,99712.53
2022-11-03T03:43:38.836Z,99726.84
2022-11-03T03:46:06.350Z,99723.34
2022-11-03T03:48:34.231Z,99724.06
2022-11-03T03:51:01.763Z,99719.56
2022-11-03T03:53:29.323Z,99712.53
2022-11-03T03:55:56.971Z,99712.53
2022-11-03T03:58:24.516Z,99701.88
2022-11-03T04:00:52.574Z,99700.88
2022-11-03T04:03:20.513Z,99710.56
2022-11-03T04:05:48.079Z,99701.56
2022-11-03T04:08:15.623Z,99699.59
2022-11-03T04:11:04.034Z,99694.13
2022-11-03T04:13:48.862Z,99694.72
2022-11-03T04:16:33.988Z,99690.06
2022-11-03T04:19:18.934Z,99693.44
2022-11-03T04:22:06.625Z,99692.59
2022-11-03T04:24:34.456Z,99678.28
2022-11-03T04:27:01.991Z,99674.63
2022-11-03T04:29:29.553Z,99670.97
2022-11-03T04:31:57.092Z,99670.81
2022-11-03T04:34:24.965Z,99667.88
2022-11-03T04:36:52.525Z,99671.25
2022-11-03T04:39:20.045Z,99669.41
2022-11-03T04:41:47.624Z,99667.31
2022-11-03T04:44:15.176Z,99663.66
2022-11-03T04:46:46.237Z,99656.63
2022-11-03T04:49:13.773Z,99661.41
2022-11-03T04:51:41.367Z,99654.50
2022-11-03T04:54:08.875Z,99652.69
2022-11-03T04:56:36.455Z,99640.16
2022-11-03T04:59:04.271Z,99644.38
2022-11-03T05:01:31.921Z,99646.94
2022-11-03T05:03:59.612Z,99636.94
2022-11-03T05:06:27.180Z,99638.63
2022-11-03T05:08:54.704Z,99635.81
2022-11-03T05:11:23.549Z,99635.81
2022-11-03T05:13:51.144Z,99629.66
2022-11-03T05:16:19.031Z,99628.81
2022-11-03T05:18:46.581Z,99625.44
2022-11-03T05:21:14.196Z,99624.31
2022-11-03T05:23:42.633Z,99624.31
2022-11-03T05:26:10.205Z,99618.97
2022-11-03T05:28:38.110Z,99609.97
2022-11-03T05:31:05.650Z,99606.56
2022-11-03T05:33:33.207Z,99608.28
2022-11-03T05:36:02.591Z,99599.56
2022-11-03T05:38:30.140Z,99593.38
2022-11-03T05:40:57.728Z,99595.91
2022-11-03T05:43:25.354Z,99595.06
2022-11-03T05:45:52.994Z,99586.19
2022-11-03T05:48:21.515Z,99590.56
2022-11-03T05:50:49.411Z,99593.22
2022-11-03T05:53:16.961Z,99604.63
2022-11-03T05:55:44.533Z,99598.16
2022-11-03T05:58:12.176Z,99592.41
2022-11-03T06:00:47.124Z,99589.44
2022-11-03T06:03:16.204Z,99582.09
2022-11-03T06:05:43.795Z,99578.44
2022-11-03T06:08:11.378Z,99574.66
2022-11-03T06:10:39.081Z,99555.69
2022-11-03T06:13:10.253Z,99564.38
2022-11-03T06:15:38.897Z,99558.06
2022-11-03T06:18:06.529Z,99546.50
2022-11-03T06:20:34.102Z,99550.88
2022-11-03T06:23:01.693Z,99550.72
2022-11-03T06:25:30.956Z,99545.38
2022-11-03T06:27:58.807Z,99546.25
2022-11-03T06:30:26.610Z,99540.75
2022-11-03T06:32:54.307Z,99541.59
2022-11-03T06:35:22.258Z,99537.91
2022-11-03T06:37:50.687Z,99535.97
2022-11-03T06:40:18.314Z,99539.31
2022-11-03T06:42:45.909Z,99537.34
2022-11-03T06:45:13.490Z,99530.00
2022-11-03T06:47:41.166Z,99532.25
2022-11-03T06:50:10.167Z,99530.13
2022-11-03T06:52:37.807Z,99536.19
2022-11-03T06:55:05.518Z,99527.19
2022-11-03T06:57:33.374Z,99519.16
2022-11-03T07:00:20.407Z,99517.16
2022-11-03T07:02:50.545Z,99517.06
2022-11-03T07:05:18.089Z,99501.84
2022-11-03T07:07:45.651Z,99508.88
2022-11-03T07:10:13.327Z,99507.75
2022-11-03T07:12:40.944Z,99505.78
2022-11-03T07:15:09.492Z,99495.09
2022-11-03T07:17:37.471Z,99485.22
2022-11-03T07:20:05.225Z,99469.88
2022-11-03T07:22:32.793Z,99475.94
2022-11-03T07:25:00.452Z,99478.44
2022-11-03T07:27:29.988Z,99476.47
2022-11-03T07:29:57.598Z,99460.28
2022-11-03T07:32:25.222Z,99465.34
2022-11-03T07:34:52.900Z,99473.06
2022-11-03T07:37:20.539Z,99469.25
2022-11-03T07:39:49.280Z,99470.78
2022-11-03T07:42:16.943Z,99471.47
2022-11-03T07:44:44.634Z,99462.44
2022-11-03T07:47:12.369Z,99468.47
2022-11-03T07:49:40.041Z,99463.84
2022-11-03T07:52:08.576Z,99444.94
2022-11-03T07:54:36.253Z,99449.31
2022-11-03T07:57:03.838Z,99442.81
2022-11-03T07:59:31.645Z,99441.66
2022-11-03T08:02:00.097Z,99448.41
2022-11-03T08:04:30.265Z,99448.25
2022-11-03T08:06:58.141Z,99450.91
2022-11-03T08:09:26.066Z,99434.59
2022-11-03T08:11:53.748Z,99430.91
2022-11-03T08:14:21.445Z,99429.91
2022-11-03T08:16:50.824Z,99428.91
2022-11-03T08:19:18.588Z,99426.09
2022-11-03T08:21:46.280Z,99427.63
2022-11-03T08:24:14.351Z,99424.63
2022-11-03T08:26:42.087Z,99423.16
2022-11-03T08:29:10.580Z,99423.41
2022-11-03T08:31:38.387Z,99410.94
2022-11-03T08:34:06.112Z,99406.50
2022-11-03T08:36:34.387Z,99398.19
2022-11-03T08:39:02.176Z,99383.72
2022-11-03T08:41:30.443Z,99395.19
2022-11-03T08:43:58.186Z,99386.38
2022-11-03T08:46:26.114Z,99378.38
2022-11-03T08:48:53.935Z,99383.09
2022-11-03T08:51:21.691Z,99389.84
2022-11-03T08:53:54.147Z,99393.88
2022-11-03T08:56:22.590Z,99403.44
2022-11-03T08:58:50.659Z,99398.59
2022-11-03T09:01:18.455Z,99396.56
2022-11-03T09:03:46.257Z,99381.03
2022-11-03T09:06:14.619Z,99385.22
2022-11-03T09:11:30.245Z,99376.06
2022-11-03T09:13:58.099Z,99376.25
2022-11-03T09:16:27.104Z,99361.53
2022-11-03T09:18:54.836Z,99356.69
2022-11-03T09:21:22.591Z,99346.28
2022-11-03T09:23:50.386Z,99355.69
2022-11-03T09:26:18.258Z,99343.47
2022-11-03T09:28:49.952Z,99335.63
2022-11-03T09:31:17.668Z,99332.09
2022-11-03T09:33:45.607Z,99326.75
2022-11-03T09:36:13.431Z,99318.69
2022-11-03T09:38:41.077Z,99321.41
2022-11-03T09:41:18.772Z,99316.91
2022-11-03T09:43:54.646Z,99305.00
2022-11-03T09:46:22.462Z,99306.47
2022-11-03T09:48:50.345Z,99297.03
2022-11-03T09:51:19.374Z,99281.44
2022-11-03T09:53:47.142Z,99277.72
2022-11-03T09:56:14.931Z,99268.00
2022-11-03T09:58:42.807Z,99259.94
2022-11-03T10:01:10.631Z,99253.56
2022-11-03T10:03:41.083Z,99250.72
2022-11-03T10:06:11.104Z,99250.56
2022-11-03T10:08:43.283Z,99243.69
2022-11-03T10:11:11.086Z,99241.16
2022-11-03T10:13:39.630Z,99243.50
2022-11-03T10:16:08.026Z,99233.75
2022-11-03T10:18:35.817Z,99238.75
2022-11-03T10:21:03.604Z,99228.34
2022-11-03T10:23:31.342Z,99227.63
2022-11-03T10:25:59.825Z,99232.50
2022-11-03T10:28:28.815Z,99236.66
2022-11-03T10:31:10.662Z,99233.16
2022-11-03T10:33:40.888Z,99230.63
2022-11-03T10:36:09.145Z,99226.81
2022-11-03T10:38:37.303Z,99203.81
2022-11-03T10:41:05.352Z,99197.78
2022-11-03T10:43:33.159Z,99178.50
2022-11-03T10:46:00.889Z,99160.72
2022-11-03T10:48:29.642Z,99142.72
2022-11-03T10:50:58.129Z,99139.88
2022-11-03T10:55:58.796Z,99145.41
2022-11-03T10:58:26.673Z,99141.72
2022-11-03T11:00:55.895Z,99136.34
2022-11-03T11:03:24.400Z,99128.13
2022-11-03T11:05:52.157Z,99118.22
2022-11-03T11:08:19.983Z,99114.50
2022-11-03T11:10:48.078Z,99114.50
2022-11-03T11:13:17.952Z,99130.63
2022-11-03T11:15:46.262Z,99133.47
2022-11-03T11:18:15.073Z,99108.66
2022-11-03T11:20:42.908Z,99107.63
2022-11-03T11:23:11.005Z,99089.66
2022-11-03T11:25:40.572Z,99092.19
2022-11-03T11:28:08.850Z,99068.16
2022-11-03T11:30:36.674Z,99049.75
2022-11-03T11:33:04.876Z,99047.41
2022-11-03T11:35:33.111Z,99045.91
2022-11-03T11:38:03.031Z,99039.06
2022-11-03T11:40:31.279Z,99031.00
2022-11-03T11:42:59.094Z,99029.16
2022-11-03T11:45:26.832Z,99017.19
2022-11-03T11:47:54.804Z,99017.13
2022-11-03T11:50:22.702Z,99016.09
2022-11-03T11:52:50.774Z,99023.38
2022-11-03T11:55:18.699Z,99001.09
2022-11-03T11:57:46.984Z,98977.75
2022-11-03T12:00:14.948Z,98981.97
2022-11-03T12:02:44.980Z,98974.34
2022-11-03T12:05:12.959Z,98980.38
2022-11-03T12:07:40.725Z,98976.34
2022-11-03T12:10:08.698Z,98955.81
2022-11-03T12:12:36.987Z,98966.66
2022-11-03T12:15:05.010Z,98959.22
2022-11-03T12:17:32.969Z,98944.94
2022-11-03T12:20:01.105Z,98956.91
2022-11-03T12:22:29.420Z,98966.84
2022-11-03T12:24:57.221Z,98968.59
2022-11-03T12:27:26.553Z,98962.44
2022-11-03T12:29:54.907Z,98957.88
2022-11-03T12:32:34.012Z,98944.97
2022-11-03T12:35:02.643Z,98960.97
2022-11-03T12:37:30.651Z,98960.97
2022-11-03T12:39:58.340Z,98932.94
2022-11-03T12:42:26.357Z,98911.97
2022-11-03T12:44:54.188Z,98893.31
2022-11-03T12:47:21.938Z,98872.78
2022-11-03T12:49:50.570Z,98883.56
2022-11-03T12:52:18.524Z,98883.75
2022-11-03T12:54:46.501Z,98873.59
2022-11-03T12:57:14.849Z,98871.13
2022-11-03T12:59:42.727Z,98875.97
2022-11-03T13:02:13.748Z,98870.28
2022-11-03T13:04:42.127Z,98859.16
2022-11-03T13:07:09.976Z,98853.69
2022-11-03T13:09:37.838Z,98845.59
2022-11-03T13:12:23.277Z,98834.56
2022-11-03T13:14:51.524Z,98829.38
2022-11-03T13:17:19.316Z,98831.13
2022-11-03T13:19:47.103Z,98821.69
2022-11-03T13:22:15.135Z,98820.03
2022-11-03T13:24:43.095Z,98829.63
2022-11-03T13:27:13.023Z,98806.44
2022-11-03T13:29:40.975Z,98811.28
2022-11-03T13:32:08.708Z,98796.97
2022-11-03T13:34:36.713Z,98784.44
2022-11-03T13:37:04.962Z,98772.09
2022-11-03T13:39:33.365Z,98770.75
2022-11-03T13:42:01.811Z,98766.44
2022-11-03T13:44:29.549Z,98759.19
2022-11-03T13:46:57.300Z,98773.28
2022-11-03T13:52:14.723Z,98764.75
2022-11-03T14:00:18.232Z,98744.69
2022-11-03T14:05:34.162Z,98732.44
2022-11-03T14:08:01.992Z,98725.75
2022-11-03T14:10:29.861Z,98730.69
2022-11-03T14:12:57.188Z,98720.69
2022-11-03T14:15:26.477Z,98728.94
2022-11-03T14:17:54.465Z,98723.94
2022-11-03T14:20:22.478Z,98707.38
2022-11-03T14:22:50.665Z,98703.19
2022-11-03T14:25:20.859Z,98719.03
2022-11-03T14:27:51.029Z,98700.97
2022-11-03T14:30:18.994Z,98690.16
2022-11-03T14:32:46.931Z,98679.34
2022-11-03T14:35:14.850Z,98675.50
2022-11-03T14:37:42.986Z,98668.03
2022-11-03T14:40:31.618Z,98662.56
2022-11-03T14:42:58.727Z,98653.22
2022-11-03T14:45:26.852Z,98654.41
2022-11-03T14:47:55.031Z,98651.28
2022-11-03T14:50:22.943Z,98648.13
2022-11-03T14:52:50.792Z,98646.66
2022-11-03T14:55:18.626Z,98644.53
2022-11-03T14:57:46.429Z,98626.25
2022-11-03T15:00:14.522Z,98620.59
2022-11-03T15:02:43.648Z,98622.66
2022-11-03T15:05:32.484Z,98623.84
2022-11-03T15:08:00.550Z,98615.97
2022-11-03T15:10:28.831Z,98612.66
2022-11-03T15:12:57.620Z,98604.94
2022-11-03T15:15:25.669Z,98597.28
2022-11-03T15:40:17.132Z,98610.22
2022-11-03T15:45:47.762Z,98592.38
2022-11-03T15:48:15.544Z,98586.09
2022-11-03T15:50:44.572Z,98591.72
2022-11-03T15:56:21.734Z,98582.53
2022-11-03T15:58:49.835Z,98577.44
2022-11-03T16:01:18.212Z,98593.75
2022-11-03T16:03:46.288Z,98588.84
2022-11-03T16:06:14.307Z,98585.91
2022-11-03T16:08:42.034Z,98577.47
2022-11-03T16:11:09.955Z,98572.00
2022-11-03T16:13:39.783Z,98567.78
2022-11-03T16:16:07.755Z,98550.06
2022-11-03T16:18:35.796Z,98551.91
2022-11-03T16:21:04.047Z,98550.25
2022-11-03T16:23:32.351Z,98539.69
2022-11-03T16:26:00.523Z,98546.25
2022-11-03T16:28:28.464Z,98537.56
2022-11-03T16:30:56.253Z,98544.47
2022-11-03T16:33:24.172Z,98538.53
2022-11-03T16:35:52.140Z,98550.63
2022-11-03T16:38:20.437Z,98530.88
2022-11-03T16:40:48.494Z,98549.88
2022-11-03T16:43:16.655Z,98539.25
2022-11-03T16:45:44.434Z,98533.09
2022-11-03T16:48:12.297Z,98530.78
2022-11-03T16:50:43.044Z,98524.78
2022-11-03T16:53:12.611Z,98521.28
2022-11-03T16:55:40.527Z,98528.50
2022-11-03T16:58:08.442Z,98523.16
2022-11-03T17:00:36.375Z,98532.84
2022-11-03T17:03:04.681Z,98525.34
2022-11-03T17:05:32.975Z,98530.84
2022-11-03T17:08:00.880Z,98530.00
2022-11-03T17:10:29.334Z,98524.66
2022-11-03T17:12:57.110Z,98514.47
2022-11-03T17:15:25.633Z,98523.19
2022-11-03T17:17:53.468Z,98524.84
2022-11-03T17:20:21.345Z,98523.50
2022-11-03T17:22:49.212Z,98519.66
2022-11-03T17:25:17.042Z,98514.00
2022-11-03T17:27:45.843Z,98512.84
2022-11-03T17:30:13.802Z,98513.19
2022-11-03T17:32:41.649Z,98513.34
2022-11-03T17:35:10.193Z,98491.31
2022-11-03T17:37:38.130Z,98496.16
2022-11-03T17:40:06.928Z,98494.50
2022-11-03T17:42:34.749Z,98489.97
2022-11-03T17:45:02.978Z,98481.81
2022-11-03T17:47:31.914Z,98468.81
2022-11-03T17:50:00.862Z,98475.47
2022-11-03T17:52:31.290Z,98479.47
2022-11-03T17:54:59.125Z,98452.28
2022-11-03T17:57:26.934Z,98460.78
2022-11-03T17:59:54.986Z,98453.28
2022-11-03T18:02:22.909Z,98453.78
2022-11-03T18:04:52.482Z,98452.25
2022-11-03T18:07:20.702Z,98431.53
2022-11-03T18:09:48.433Z,98428.06
2022-11-03T18:12:29.979Z,98421.72
2022-11-03T18:14:58.204Z,98419.03
2022-11-03T18:17:25.987Z,98409.53
2022-11-03T18:19:53.915Z,98413.53
2022-11-03T18:22:21.694Z,98406.03
2022-11-03T18:24:49.538Z,98420.06
2022-11-03T18:27:22.688Z,98404.41
2022-11-03T18:29:52.820Z,98405.06
2022-11-03T18:32:21.019Z,98405.75
2022-11-03T18:34:48.961Z,98395.56
2022-11-03T18:37:16.768Z,98399.53
2022-11-03T18:39:46.854Z,98398.00
2022-11-03T18:42:14.651Z,98398.34
2022-11-03T18:44:43.247Z,98382.66
2022-11-03T18:47:11.257Z,98378.59
2022-11-03T18:49:39.060Z,98372.09
2022-11-03T18:52:08.259Z,98366.41
2022-11-03T18:54:36.468Z,98374.25
2022-11-03T18:57:04.262Z,98366.22
2022-11-03T18:59:32.295Z,98353.03
2022-11-03T19:02:00.339Z,98350.72
2022-11-03T19:04:29.966Z,98341.22
2022-11-03T19:06:58.749Z,98345.91
2022-11-03T19:09:26.562Z,98348.59
2022-11-03T19:11:54.380Z,98360.09
2022-11-03T19:14:22.220Z,98351.09
2022-11-03T19:17:21.324Z,98358.25
2022-11-03T19:19:39.948Z,98348.59
2022-11-03T19:22:07.810Z,98356.75
2022-11-03T19:24:35.598Z,98362.09
2022-11-03T19:27:04.209Z,98360.28
2022-11-03T19:29:32.043Z,98355.47
2022-11-03T19:31:59.885Z,98355.13
2022-11-03T19:34:27.717Z,98362.66
2022-11-03T19:36:55.853Z,98360.50
2022-11-03T19:39:24.782Z,98358.19
2022-11-03T19:42:10.140Z,98356.69
2022-11-03T19:44:37.928Z,98357.00
2022-11-03T19:47:05.792Z,98351.03
2022-11-03T19:49:34.624Z,98352.03
2022-11-03T19:52:02.356Z,98342.38
2022-11-03T19:54:31.242Z,98347.69
2022-11-03T19:56:59.314Z,98347.88
2022-11-03T19:59:27.299Z,98348.03
2022-11-03T20:01:55.669Z,98336.69
2022-11-03T20:04:23.500Z,98327.19
2022-11-03T20:06:51.420Z,98323.50
2022-11-03T20:09:19.732Z,98325.38
2022-11-03T20:11:47.569Z,98320.69
2022-11-03T20:14:16.694Z,98322.69
2022-11-03T20:16:44.508Z,98321.03
2022-11-03T20:19:12.650Z,98319.38
2022-11-03T20:21:41.259Z,98325.88
2022-11-03T20:24:09.125Z,98313.06
2022-11-03T20:26:37.399Z,98313.38
2022-11-03T20:29:05.314Z,98315.41
2022-11-03T20:31:33.166Z,98312.09
2022-11-03T20:34:01.093Z,98321.91
2022-11-03T20:36:28.916Z,98325.56
2022-11-03T20:39:00.059Z,98329.25
2022-11-03T20:41:28.024Z,98328.41
2022-11-03T20:43:55.802Z,98317.09
2022-11-03T20:46:23.568Z,98314.41
2022-11-03T20:48:51.483Z,98314.41
2022-11-03T20:51:19.717Z,98315.25
2022-11-03T20:53:47.832Z,98307.25
2022-11-03T20:56:19.431Z,98308.22
2022-11-03T20:58:47.736Z,98301.44
2022-11-03T21:01:16.228Z,98305.28
2022-11-03T21:03:58.801Z,98298.28
2022-11-03T21:06:27.305Z,98296.63
2022-11-03T21:08:55.451Z,98294.09
2022-11-03T21:11:27.717Z,98297.78
2022-11-03T21:13:57.411Z,98293.44
2022-11-03T21:16:42.523Z,98307.75
2022-11-03T21:19:27.601Z,98305.94
2022-11-03T21:21:55.313Z,98295.28
2022-11-03T21:26:59.279Z,98285.78
2022-11-03T21:29:53.351Z,98290.44
2022-11-03T21:32:15.058Z,98270.44
2022-11-03T21:34:43.070Z,98288.47
2022-11-03T21:37:11.561Z,98305.47
2022-11-03T21:39:39.424Z,98290.47
2022-11-03T21:42:24.363Z,98297.47
2022-11-03T21:44:55.791Z,98297.13
2022-11-03T21:47:23.442Z,98314.47
2022-11-03T21:49:50.054Z,98312.13
2022-11-03T21:52:18.000Z,98305.09
2022-11-03T21:54:45.801Z,98306.25
2022-11-03T21:57:15.177Z,98299.75
2022-11-03T21:59:42.856Z,98300.25
2022-11-03T22:02:10.651Z,98301.38
2022-11-03T22:04:38.431Z,98296.34
2022-11-03T22:07:06.767Z,98292.34
2022-11-03T22:09:34.714Z,98312.31
2022-11-03T22:12:02.440Z,98322.03
2022-11-03T22:14:50.133Z,98321.66
2022-11-03T22:17:16.763Z,98321.31
2022-11-03T22:20:01.869Z,98310.47
2022-11-03T22:22:46.808Z,98308.66
2022-11-03T22:25:31.869Z,98305.97
2022-11-03T22:27:59.857Z,98313.97
2022-11-03T22:30:45.176Z,98334.97
2022-11-03T22:33:12.886Z,98316.28
2022-11-03T22:35:58.225Z,98293.94
2022-11-03T22:38:48.494Z,98316.66
2022-11-03T22:41:33.709Z,98318.84
2022-11-03T22:44:18.806Z,98334.84
2022-11-03T22:46:46.403Z,98334.00
2022-11-03T22:49:14.635Z,98323.31
2022-11-03T22:51:42.272Z,98331.50
2022-11-03T22:54:11.715Z,98321.00
2022-11-03T22:56:39.292Z,98331.69
2022-11-03T22:59:06.832Z,98320.66
2022-11-03T23:01:35.874Z,98323.16
2022-11-03T23:04:03.851Z,98323.00
2022-11-03T23:06:31.542Z,98316.66
2022-11-03T23:08:59.147Z,98315.81
2022-11-03T23:11:26.703Z,98324.81
2022-11-03T23:13:54.641Z,98321.31
2022-11-03T23:16:22.248Z,98322.81
2022-11-03T23:19:07.314Z,98316.66
2022-11-03T23:21:34.914Z,98319.97
2022-11-03T23:24:20.456Z,98337.81
2022-11-03T23:26:48.070Z,98298.78
2022-11-03T23:29:15.680Z,98300.28
2022-11-03T23:31:43.544Z,98303.97
2022-11-03T23:34:11.155Z,98308.81
2022-11-03T23:36:39.157Z,98326.88
2022-11-03T23:39:06.815Z,98334.41
2022-11-03T23:41:34.394Z,98352.25
2022-11-03T23:44:01.934Z,98365.44
2022-11-03T23:46:47.249Z,98376.63
2022-11-03T23:49:14.789Z,98375.44
2022-11-03T23:51:42.731Z,98391.78
2022-11-03T23:54:10.319Z,98394.13
2022-11-03T23:56:55.503Z,98411.63
2022-11-03T23:59:23.096Z,98419.47
